Time;durP1;ratioP1;P1;durP2;ratioP2;P2;SDS_P1;SDS_P2;PMS_P1;PMS_P2;Temp;Humidity;BMP_temperature;BMP_pressure;BME280_temperature;BME280_humidity;BME280_pressure;Samples;Min_cycle;Max_cycle;Signal;HPM_P1;HPM_P2
2023/10/02 00:05:05;;;;;;;0.68;0.68;;;;;;;15.21;75.18;100427.75;5096114;28;20036;-66
2023/10/02 00:07:35;;;;;;;1.17;1.08;;;;;;;15.28;75.24;100434.56;5096347;28;20435;-66
2023/10/02 00:10:05;;;;;;;;;;;;;;;15.31;75.46;100437.06;5096686;28;20040;-66
2023/10/02 00:12:34;;;;;;;1.08;0.90;;;;;;;15.31;75.68;100431.94;5096092;28;20015;-65
2023/10/02 00:15:12;;;;;;;0.50;0.50;;;;;;;15.35;75.40;100424.22;5096124;28;20043;-66
2023/10/02 00:17:43;;;;;;;1.20;0.80;;;;;;;15.33;75.32;100419.94;5097012;28;20036;-65
2023/10/02 00:20:21;;;;;;;0.88;0.85;;;;;;;15.31;75.17;100416.50;5096060;28;20047;-66
2023/10/02 00:22:52;;;;;;;0.90;0.88;;;;;;;15.35;75.33;100423.34;5095854;28;20036;-66
2023/10/02 00:25:27;;;;;;;;;;;;;;;15.31;75.29;100416.50;5096339;28;20117;-66
2023/10/02 00:27:59;;;;;;;0.60;0.60;;;;;;;15.31;75.43;100407.06;5095950;28;19927;-65
2023/10/02 00:30:35;;;;;;;0.70;0.70;;;;;;;15.33;75.10;100425.09;5094669;28;20050;-66
2023/10/02 00:33:11;;;;;;;0.88;0.75;;;;;;;15.32;75.36;100436.22;5094672;28;20044;-67
2023/10/02 00:35:52;;;;;;;1.63;1.27;;;;;;;15.31;75.33;100426.78;5094264;28;20044;-66
2023/10/02 00:38:21;;;;;;;1.23;1.13;;;;;;;15.33;75.17;100430.22;5096567;28;20121;-66
2023/10/02 00:40:50;;;;;;;1.17;1.07;;;;;;;15.31;75.78;100426.78;5094530;28;20040;-67
2023/10/02 00:46:00;;;;;;;0.80;0.80;;;;;;;15.06;76.12;100421.00;5096142;28;20036;-66
2023/10/02 00:48:28;;;;;;;0.90;0.90;;;;;;;14.95;76.51;100414.22;5094329;28;20036;-65
2023/10/02 00:51:06;;;;;;;1.38;1.27;;;;;;;14.96;76.38;100416.78;5095448;28;20052;-65
2023/10/02 00:53:45;;;;;;;3.22;1.88;;;;;;;14.82;76.60;100415.16;5095382;28;20044;-66
2023/10/02 00:56:21;;;;;;;1.02;0.88;;;;;;;14.64;76.63;100411.81;5095378;28;20115;-66
2023/10/02 00:58:58;;;;;;;0.75;0.70;;;;;;;14.64;77.02;100419.53;5095957;28;20394;-66
2023/10/02 01:01:30;;;;;;;1.10;1.00;;;;;;;14.57;76.68;100415.28;5095852;28;20044;-66
2023/10/02 01:04:10;;;;;;;0.80;0.80;;;;;;;14.47;76.69;100423.91;5095155;28;20076;-66
2023/10/02 01:07:04;;;;;;;1.15;1.08;;;;;;;14.38;76.77;100423.94;5094436;28;20048;-65
2023/10/02 01:09:35;;;;;;;1.23;1.02;;;;;;;14.27;77.15;100423.13;5093890;28;20032;-66
2023/10/02 01:12:10;;;;;;;1.33;0.70;;;;;;;14.26;77.54;100423.97;5095060;28;20048;-66
2023/10/02 01:14:50;;;;;;;1.33;1.20;;;;;;;14.23;77.37;100435.97;5095061;28;20051;-65
2023/10/02 01:17:22;;;;;;;1.23;1.10;;;;;;;14.06;77.78;100430.88;5094015;28;20048;-67
2023/10/02 01:19:57;;;;;;;0.50;0.50;;;;;;;14.02;78.06;100429.16;5093713;28;20055;-67
2023/10/02 01:22:31;;;;;;;0.80;0.73;;;;;;;14.05;78.50;100424.03;5093957;28;20125;-67
2023/10/02 01:25:12;;;;;;;1.70;1.60;;;;;;;14.07;78.92;100422.31;5094834;28;20052;-67
2023/10/02 01:27:48;;;;;;;0.50;0.50;;;;;;;14.10;79.34;100432.59;5093616;28;20061;-65
2023/10/02 01:30:21;;;;;;;0.70;0.70;;;;;;;14.13;79.76;100432.59;5094819;28;20048;-65
2023/10/02 01:35:37;;;;;;;0.70;0.60;;;;;;;14.21;79.80;100435.09;5094678;28;20083;-64
2023/10/02 01:38:14;;;;;;;0.50;0.50;;;;;;;14.21;80.33;100430.81;5093608;28;20131;-65
2023/10/02 01:40:48;;;;;;;0.88;0.88;;;;;;;14.31;80.40;100427.41;5093393;28;20045;-65
2023/10/02 01:43:21;;;;;;;0.50;0.50;;;;;;;14.37;80.23;100424.78;5093527;28;20520;-64
2023/10/02 01:45:56;;;;;;;0.70;0.70;;;;;;;14.42;80.07;100420.50;5094824;28;20047;-65
2023/10/02 01:53:46;;;;;;;1.33;1.23;;;;;;;14.17;79.74;100434.28;5094271;28;20055;-65
2023/10/02 01:56:17;;;;;;;1.15;0.90;;;;;;;14.12;79.87;100443.69;5094204;28;20564;-66
2023/10/02 01:58:48;;;;;;;0.70;0.70;;;;;;;14.14;80.25;100441.97;5093372;28;20044;-66
2023/10/02 02:01:20;;;;;;;0.50;0.50;;;;;;;14.06;79.69;100439.41;5093339;28;20138;-67
2023/10/02 02:03:55;;;;;;;1.08;0.98;;;;;;;13.92;79.99;100437.75;5092870;28;20040;-67
2023/10/02 02:06:25;;;;;;;0.85;0.70;;;;;;;13.87;80.10;100442.03;5093955;28;20052;-67
2023/10/02 02:08:58;;;;;;;0.73;0.70;;;;;;;13.82;80.29;100436.06;5094026;28;20094;-66
2023/10/02 02:11:34;;;;;;;0.90;0.90;;;;;;;13.87;80.86;100447.16;5094409;28;20048;-66
2023/10/02 02:14:04;;;;;;;3.10;1.10;;;;;;;13.86;80.63;100448.03;5092771;28;20094;-65
2023/10/02 02:16:34;;;;;;;0.80;0.80;;;;;;;13.75;81.13;100449.78;5093087;28;20117;-65
2023/10/02 02:19:06;;;;;;;0.40;0.40;;;;;;;13.72;81.19;100445.50;5094488;28;20457;-65
2023/10/02 02:21:38;;;;;;;0.55;0.55;;;;;;;13.72;81.21;100447.22;5094228;28;20098;-65
2023/10/02 02:24:11;;;;;;;1.08;1.00;;;;;;;13.72;81.63;100444.63;5093825;28;20064;-65
2023/10/02 02:26:43;;;;;;;0.45;0.45;;;;;;;13.70;81.42;100447.19;5093865;28;20055;-67
2023/10/02 02:29:23;;;;;;;0.50;0.50;;;;;;;13.68;81.52;100438.66;5093733;28;20044;-65
2023/10/02 02:31:55;;;;;;;8.73;1.58;;;;;;;13.68;81.76;100445.47;5092567;28;20113;-65
2023/10/02 02:34:25;;;;;;;0.60;0.60;;;;;;;13.69;81.78;100439.50;5094033;28;20076;-67
2023/10/02 02:36:57;;;;;;;0.40;0.40;;;;;;;13.63;81.62;100440.34;5093803;28;20059;-67
2023/10/02 02:39:27;;;;;;;1.80;1.67;;;;;;;13.60;81.58;100439.53;5093851;28;20052;-66
2023/10/02 02:44:45;;;;;;;0.93;0.93;;;;;;;13.56;81.75;100442.91;5092035;28;20040;-66
2023/10/02 02:47:16;;;;;;;1.33;0.85;;;;;;;13.43;82.07;100448.09;5092398;28;20055;-66
2023/10/02 02:49:52;;;;;;;0.98;0.95;;;;;;;13.41;82.41;100442.06;5093875;28;20386;-64
2023/10/02 02:52:24;;;;;;;0.63;0.63;;;;;;;13.48;82.56;100445.50;5093546;28;20044;-66
2023/10/02 02:55:12;;;;;;;0.50;0.50;;;;;;;13.50;82.44;100458.31;5093528;28;20040;-65
2023/10/02 02:57:45;;;;;;;0.60;0.60;;;;;;;13.38;81.88;100454.91;5092347;28;20123;-65
2023/10/02 03:02:57;;;;;;;0.40;0.40;;;;;;;13.24;82.43;100446.38;5093358;28;20521;-66
2023/10/02 03:05:37;;;;;;;0.50;0.50;;;;;;;13.30;82.68;100443.78;5093437;28;20061;-66
2023/10/02 03:08:08;;;;;;;0.52;0.52;;;;;;;13.24;82.34;100440.38;5093347;28;20043;-66
2023/10/02 03:10:39;;;;;;;0.90;0.90;;;;;;;13.22;82.59;100442.94;5093363;28;20044;-66
2023/10/02 03:13:15;;;;;;;1.00;0.70;;;;;;;13.25;82.92;100440.38;5092198;28;20049;-65
2023/10/02 03:15:48;;;;;;;1.08;0.90;;;;;;;13.14;82.79;100434.41;5093642;28;20048;-66
2023/10/02 03:18:30;;;;;;;1.52;1.42;;;;;;;13.10;82.84;100442.09;5094688;28;20054;-66
2023/10/02 03:21:13;;;;;;;0.68;0.68;;;;;;;13.24;82.77;100448.94;5097488;28;20108;-65
2023/10/02 03:23:43;;;;;;;0.55;0.55;;;;;;;13.18;82.78;100451.47;5097090;28;20051;-66
2023/10/02 03:26:27;;;;;;;1.05;0.95;;;;;;;13.03;82.50;100441.16;5097109;28;20473;-66
2023/10/02 03:29:02;;;;;;;1.23;1.10;;;;;;;12.98;82.76;100436.91;5097659;28;20062;-64
2023/10/02 03:31:36;;;;;;;0.65;0.65;;;;;;;12.89;82.41;100440.28;5097310;28;20383;-66
2023/10/02 03:36:51;;;;;;;5.57;0.80;;;;;;;12.79;82.85;100447.09;5096539;28;20482;-67
2023/10/02 03:39:51;;;;;;;0.77;0.77;;;;;;;12.77;83.12;100448.81;5097465;28;20044;-67
2023/10/02 03:42:21;;;;;;;0.50;0.50;;;;;;;12.71;83.20;100438.56;5096842;28;20056;-66
2023/10/02 03:44:56;;;;;;;0.70;0.70;;;;;;;12.70;83.13;100443.66;5096726;28;20044;-65
2023/10/02 03:47:30;;;;;;;1.30;0.88;;;;;;;12.69;83.60;100439.41;5096675;28;20040;-65
2023/10/02 03:50:01;;;;;;;5.63;1.20;;;;;;;12.72;83.29;100444.50;5096678;28;20075;-64
2023/10/02 03:52:34;;;;;;;1.00;0.93;;;;;;;12.75;83.47;100437.69;5096873;28;20407;-66
2023/10/02 03:55:17;;;;;;;0.70;0.70;;;;;;;12.63;83.11;100440.22;5096922;28;20048;-65
2023/10/02 03:57:52;;;;;;;0.85;0.85;;;;;;;12.53;83.57;100442.75;5096824;28;20413;-66
2023/10/02 04:00:26;;;;;;;0.40;0.40;;;;;;;12.47;83.56;100442.72;5096753;28;20383;-65
2023/10/02 04:02:59;;;;;;;0.57;0.57;;;;;;;12.45;83.82;100445.25;5096631;28;20055;-66
2023/10/02 04:05:34;;;;;;;0.57;0.57;;;;;;;12.50;83.96;100440.19;5096619;28;20067;-66
2023/10/02 04:13:32;;;;;;;0.40;0.40;;;;;;;12.61;84.00;100452.19;5096413;28;20067;-66
2023/10/02 04:18:47;;;;;;;0.80;0.77;;;;;;;12.90;84.17;100462.50;5096171;28;20047;-65
2023/10/02 04:21:19;;;;;;;1.75;1.35;;;;;;;12.99;84.16;100462.50;5096101;28;20040;-64
2023/10/02 04:23:52;;;;;;;1.35;1.00;;;;;;;13.12;83.91;100474.56;5095933;28;20089;-66
2023/10/02 04:40:51;;;;;;;2.78;1.92;;;;;;;13.42;83.53;100466.00;5132560;27;20391;-67
2023/10/02 04:43:19;;;;;;;0.75;0.75;;;;;;;13.46;83.55;100464.31;5131627;28;20050;-67
2023/10/02 04:45:49;;;;;;;0.50;0.50;;;;;;;13.49;83.66;100469.44;5131873;28;20497;-66
2023/10/02 04:48:17;;;;;;;0.65;0.65;;;;;;;13.58;83.38;100474.59;5131534;27;20530;-67
2023/10/02 04:50:46;;;;;;;0.70;0.70;;;;;;;13.62;83.37;100473.72;5131416;28;20089;-67
2023/10/02 04:53:22;;;;;;;0.60;0.60;;;;;;;13.68;83.12;100483.97;5131474;27;20093;-68
2023/10/02 04:58:49;;;;;;;0.77;0.77;;;;;;;13.70;82.79;100482.28;5125698;27;20545;-67
2023/10/02 05:01:24;;;;;;;0.75;0.75;;;;;;;13.70;83.12;100489.97;5131379;28;20047;-67
2023/10/02 05:03:54;;;;;;;0.63;0.63;;;;;;;13.74;82.92;100489.09;5131691;28;20386;-68
2023/10/02 05:11:50;;;;;;;1.20;1.10;;;;;;;13.72;82.50;100501.09;5129652;28;20051;-68
2023/10/02 05:14:26;;;;;;;0.68;0.60;;;;;;;13.69;82.72;100498.50;5131046;27;20123;-69
2023/10/02 05:17:16;;;;;;;0.88;0.77;;;;;;;13.73;82.57;100505.34;5130968;28;20105;-68
2023/10/02 05:22:31;;;;;;;1.00;0.90;;;;;;;13.85;82.39;100510.47;5130921;28;20096;-68
2023/10/02 05:25:00;;;;;;;1.77;1.05;;;;;;;13.87;81.99;100508.75;5130870;28;20050;-67
2023/10/02 05:27:31;;;;;;;1.20;1.10;;;;;;;13.83;82.07;100510.47;5131094;28;20092;-68
2023/10/02 05:30:01;;;;;;;0.73;0.73;;;;;;;13.82;81.81;100507.94;5131072;28;20036;-68
2023/10/02 05:32:35;;;;;;;0.50;0.50;;;;;;;13.86;81.77;100510.50;5131101;27;20047;-68
2023/10/02 05:35:16;;;;;;;4.32;1.92;;;;;;;13.90;81.92;100506.19;5130596;28;20043;-68
2023/10/02 05:37:46;;;;;;;0.47;0.47;;;;;;;13.88;82.11;100513.91;5130804;28;20494;-68
2023/10/02 05:45:47;;;;;;;0.70;0.70;;;;;;;14.03;81.76;100513.03;5117337;28;20419;-67
2023/10/02 05:48:27;;;;;;;0.68;0.68;;;;;;;14.09;81.61;100518.16;5117124;28;20458;-67
2023/10/02 05:50:59;;;;;;;0.50;0.50;;;;;;;14.18;81.88;100520.69;5116972;28;20047;-69
2023/10/02 05:53:34;;;;;;;0.90;0.70;;;;;;;14.27;81.74;100518.13;5116641;28;20044;-68
2023/10/02 05:56:12;;;;;;;0.40;0.40;;;;;;;14.35;81.01;100516.41;5116574;28;20505;-67
2023/10/02 05:58:43;;;;;;;0.98;0.85;;;;;;;14.40;80.99;100516.41;5116557;28;20036;-68
2023/10/02 06:01:26;;;;;;;0.60;0.60;;;;;;;14.48;80.86;100518.09;5116857;28;20043;-68
2023/10/02 06:04:00;;;;;;;2.28;0.85;;;;;;;14.57;80.35;100517.19;5116570;28;20130;-67
2023/10/02 06:06:35;;;;;;;0.95;0.88;;;;;;;14.63;80.59;100523.19;5116693;28;20048;-68
2023/10/02 06:09:13;;;;;;;1.10;1.00;;;;;;;14.75;80.10;100536.00;5116284;28;20104;-67
2023/10/02 06:14:27;;;;;;;0.85;0.75;;;;;;;14.83;79.19;100533.38;5112030;28;20039;-67
2023/10/02 06:16:58;;;;;;;1.55;1.45;;;;;;;14.90;79.16;100518.78;5116520;28;20110;-67
2023/10/02 06:19:42;;;;;;;0.85;0.70;;;;;;;14.93;79.32;100523.91;5116352;28;20503;-65
2023/10/02 06:22:15;;;;;;;1.70;0.90;;;;;;;15.00;78.40;100517.84;5113591;28;20047;-67
2023/10/02 06:24:45;;;;;;;1.60;1.10;;;;;;;15.06;78.41;100528.13;5115144;27;20062;-66
2023/10/02 06:27:16;;;;;;;;;;;;;;;15.13;78.41;100527.22;5116637;28;20533;-65
2023/10/02 06:29:49;;;;;;;0.68;0.68;;;;;;;15.25;78.40;100529.72;5115902;28;19920;-65
2023/10/02 06:32:22;;;;;;;1.30;1.20;;;;;;;15.27;77.95;100533.16;5113264;27;20035;-67
2023/10/02 06:34:56;;;;;;;1.23;1.13;;;;;;;15.27;77.41;100523.72;5115816;28;20486;-67
2023/10/02 06:37:35;;;;;;;1.33;1.08;;;;;;;15.33;77.61;100530.56;5115745;28;20512;-67
2023/10/02 06:40:12;;;;;;;1.65;1.48;;;;;;;15.42;77.68;100533.06;5115645;28;20062;-67
2023/10/02 06:42:48;;;;;;;1.85;1.58;;;;;;;15.53;77.34;100526.13;5115045;28;20036;-67
2023/10/02 06:45:20;;;;;;;1.23;0.80;;;;;;;15.67;77.63;100526.88;5115873;28;20393;-68
2023/10/02 06:47:50;;;;;;;0.85;0.82;;;;;;;15.82;77.38;100524.19;5115594;28;20052;-67
2023/10/02 06:50:30;;;;;;;0.80;0.80;;;;;;;15.97;77.35;100534.38;5115521;28;20042;-68
2023/10/02 06:53:00;;;;;;;0.63;0.63;;;;;;;16.17;76.96;100536.78;5113734;28;20040;-67
2023/10/02 06:55:32;;;;;;;0.80;0.75;;;;;;;16.29;76.82;100543.50;5115780;28;20131;-67
2023/10/02 06:58:03;;;;;;;1.15;0.95;;;;;;;16.39;76.16;100547.69;5114229;28;20093;-67
2023/10/02 07:00:54;;;;;;;3.92;2.05;;;;;;;16.42;75.86;100552.81;5113649;28;20388;-68
2023/10/02 07:03:24;;;;;;;3.55;2.40;;;;;;;16.53;75.56;100545.88;5113862;28;20048;-67
2023/10/02 07:05:53;;;;;;;2.10;1.77;;;;;;;16.64;75.01;100544.88;5106606;27;20048;-66
2023/10/02 07:08:26;;;;;;;0.80;0.77;;;;;;;16.71;74.34;100546.50;5094586;28;20129;-67
2023/10/02 07:10:58;;;;;;;1.25;0.95;;;;;;;16.73;74.12;100543.91;5113559;28;20101;-66
2023/10/02 07:13:27;;;;;;;0.52;0.52;;;;;;;16.80;73.94;100545.53;5115147;28;20047;-67
2023/10/02 07:15:59;;;;;;;1.43;0.93;;;;;;;16.93;73.56;100541.09;5113764;28;20042;-67
2023/10/02 07:18:37;;;;;;;1.00;0.95;;;;;;;17.08;73.42;100546.91;5114049;28;20040;-66
2023/10/02 07:21:08;;;;;;;0.90;0.90;;;;;;;17.18;72.70;100538.16;5113864;28;20478;-68
2023/10/02 07:23:37;;;;;;;0.70;0.70;;;;;;;17.27;72.48;100537.19;5114711;28;20043;-67
2023/10/02 07:26:14;;;;;;;2.28;1.65;;;;;;;17.31;72.18;100539.69;5114814;28;20047;-68
2023/10/02 07:28:50;;;;;;;0.63;0.63;;;;;;;17.42;71.61;100548.13;5114736;28;20551;-67
2023/10/02 07:31:22;;;;;;;1.65;1.27;;;;;;;17.48;71.15;100548.91;5113855;28;20150;-66
2023/10/02 07:33:55;;;;;;;0.68;0.68;;;;;;;17.52;70.67;100550.59;5113611;28;20044;-67
2023/10/02 07:36:26;;;;;;;0.60;0.60;;;;;;;17.60;70.62;100559.09;5115015;28;20183;-67
2023/10/02 07:38:56;;;;;;;0.70;0.70;;;;;;;17.64;70.33;100558.16;5113564;28;20058;-69
2023/10/02 07:41:25;;;;;;;1.08;0.98;;;;;;;17.74;70.16;100559.72;5094195;28;20132;-67
2023/10/02 07:44:07;;;;;;;0.70;0.70;;;;;;;17.80;70.04;100559.66;5094120;28;20084;-67
2023/10/02 07:46:38;;;;;;;1.30;1.17;;;;;;;17.89;69.97;100564.66;5095069;28;20056;-68
2023/10/02 07:49:10;;;;;;;1.00;1.00;;;;;;;17.98;69.93;100565.34;5114478;28;20097;-66
2023/10/02 07:51:39;;;;;;;1.95;1.67;;;;;;;18.03;69.81;100563.56;5114631;28;20108;-68
2023/10/02 07:54:13;;;;;;;1.25;1.15;;;;;;;18.08;70.27;100566.06;5114409;28;20486;-66
2023/10/02 07:56:47;;;;;;;2.65;1.05;;;;;;;18.20;70.69;100560.69;5113253;28;20502;-66
2023/10/02 07:59:18;;;;;;;0.63;0.63;;;;;;;18.23;70.58;100560.63;5114555;28;20375;-66
2023/10/02 08:01:51;;;;;;;2.10;1.48;;;;;;;18.23;69.79;100565.78;5114288;28;20504;-67
2023/10/02 08:04:44;;;;;;;0.57;0.57;;;;;;;18.25;69.54;100564.03;5113755;28;20402;-67
2023/10/02 08:07:11;;;;;;;0.60;0.60;;;;;;;18.26;68.53;100564.88;5112997;28;20047;-68
2023/10/02 08:10:00;;;;;;;0.73;0.73;;;;;;;18.34;68.23;100557.84;5112418;28;20042;-68
2023/10/02 08:12:34;;;;;;;0.80;0.80;;;;;;;18.50;67.89;100559.31;5113897;28;20036;-68
2023/10/02 08:15:26;;;;;;;1.67;1.30;;;;;;;18.67;68.08;100552.91;5113166;28;20372;-68
2023/10/02 08:20:38;;;;;;;0.65;0.65;;;;;;;18.86;68.08;100558.56;5113969;28;20047;-67
2023/10/02 08:23:21;;;;;;;0.80;0.80;;;;;;;18.99;68.19;100554.84;5114263;28;20042;-67
2023/10/02 08:28:53;;;;;;;2.70;1.27;;;;;;;19.24;68.17;100550.00;5113910;28;20031;-68
2023/10/02 08:31:27;;;;;;;0.68;0.68;;;;;;;19.31;67.89;100554.16;5113745;28;20043;-69
2023/10/02 08:34:05;;;;;;;0.70;0.70;;;;;;;19.38;67.41;100548.00;5109288;28;20134;-69
2023/10/02 08:36:41;;;;;;;2.78;1.00;;;;;;;19.48;66.72;100557.25;5111953;28;20044;-68
2023/10/02 08:39:10;;;;;;;1.00;1.00;;;;;;;19.52;66.09;100553.69;5113760;28;20119;-67
2023/10/02 08:41:45;;;;;;;1.35;1.25;;;;;;;19.63;65.66;100553.44;5113795;28;20483;-65
2023/10/02 08:44:14;;;;;;;4.13;1.65;;;;;;;19.75;65.43;100553.13;5114069;28;20054;-66
2023/10/02 08:46:44;;;;;;;1.58;1.05;;;;;;;19.78;64.87;100551.34;5112953;28;20046;-67
2023/10/02 08:49:16;;;;;;;0.80;0.80;;;;;;;19.84;64.15;100558.94;5114014;28;20486;-67
2023/10/02 08:51:49;;;;;;;1.80;0.98;;;;;;;19.98;63.26;100556.03;5113932;28;20438;-65
2023/10/02 08:54:19;;;;;;;1.05;0.95;;;;;;;20.03;62.69;100554.19;5114021;28;20134;-67
2023/10/02 08:57:05;;;;;;;;;;;;;;;20.06;61.52;100554.09;5112694;28;20154;-66
2023/10/02 08:59:42;;;;;;;0.70;0.70;;;;;;;20.13;61.18;100545.25;5093358;28;19923;-68
2023/10/02 09:02:15;;;;;;;1.65;1.08;;;;;;;20.18;60.94;100550.34;5093604;28;20043;-65
2023/10/02 09:05:09;;;;;;;0.85;0.85;;;;;;;20.18;60.56;100547.75;5093284;28;20044;-65
2023/10/02 09:10:24;;;;;;;0.63;0.63;;;;;;;20.43;60.28;100554.03;5113694;28;20131;-65
2023/10/02 09:13:14;;;;;;;0.55;0.52;;;;;;;20.58;60.54;100543.22;5112705;28;20318;-64
2023/10/02 09:15:47;;;;;;;0.95;0.90;;;;;;;20.71;59.87;100549.75;5115076;28;20047;-63
2023/10/02 09:18:34;;;;;;;0.60;0.60;;;;;;;20.79;58.96;100547.81;5116436;28;20044;-64
2023/10/02 09:21:13;;;;;;;0.52;0.52;;;;;;;20.83;58.29;100544.22;5116296;28;20058;-63
2023/10/02 09:23:51;;;;;;;5.18;1.15;;;;;;;20.90;58.10;100540.56;5117144;28;20043;-65
2023/10/02 09:26:24;;;;;;;0.68;0.68;;;;;;;21.03;57.30;100538.47;5116155;28;20043;-65
2023/10/02 09:29:00;;;;;;;0.40;0.40;;;;;;;21.15;57.06;100528.59;5116208;27;20440;-65
2023/10/02 09:31:34;;;;;;;0.57;0.57;;;;;;;21.29;56.57;100530.75;5117119;28;20043;-64
2023/10/02 09:34:11;;;;;;;0.50;0.50;;;;;;;21.32;55.86;100534.13;5117079;28;20100;-65
2023/10/02 09:37:11;;;;;;;1.60;1.42;;;;;;;21.47;55.80;100531.94;5113625;28;20051;-65
2023/10/02 09:40:13;;;;;;;1.15;0.95;;;;;;;21.57;54.89;100533.38;5116808;28;20124;-63
2023/10/02 09:42:48;;;;;;;0.70;0.70;;;;;;;21.58;55.21;100528.09;5116820;28;20044;-64
2023/10/02 09:45:30;;;;;;;0.50;0.50;;;;;;;21.65;55.32;100531.34;5116145;28;20040;-63
2023/10/02 09:48:05;;;;;;;0.70;0.70;;;;;;;21.73;54.79;100526.75;5116656;28;20047;-64
2023/10/02 09:50:46;;;;;;;1.05;0.93;;;;;;;21.73;53.91;100524.16;5116674;28;20058;-64
2023/10/02 09:53:19;;;;;;;1.95;1.13;;;;;;;21.86;53.24;100526.34;5116862;28;20431;-65
2023/10/02 09:56:07;;;;;;;0.77;0.77;;;;;;;21.96;52.68;100526.88;5115576;28;20047;-66
2023/10/02 09:58:49;;;;;;;0.60;0.60;;;;;;;22.05;52.36;100526.59;5115645;28;20083;-66
2023/10/02 10:03:58;;;;;;;1.05;0.98;;;;;;;22.01;50.71;100530.16;5116918;28;20047;-63
2023/10/02 10:06:28;;;;;;;1.00;1.00;;;;;;;22.16;50.97;100529.66;5115678;28;20490;-64
2023/10/02 10:14:37;;;;;;;4.55;1.13;;;;;;;22.42;50.63;100519.19;5103702;28;20498;-66
2023/10/02 10:17:13;;;;;;;0.50;0.50;;;;;;;22.48;50.18;100510.31;5104935;28;20490;-65
2023/10/02 10:20:18;;;;;;;1.08;1.08;;;;;;;22.53;49.68;100514.44;5104817;28;20044;-67
2023/10/02 10:22:51;;;;;;;0.40;0.40;;;;;;;22.56;48.78;100516.94;5116355;28;20043;-67
2023/10/02 10:25:42;;;;;;;0.73;0.73;;;;;;;22.68;48.32;100520.88;5113910;28;20050;-66
2023/10/02 10:28:27;;;;;;;0.60;0.60;;;;;;;22.74;47.69;100510.25;5115590;28;20506;-64
2023/10/02 10:31:01;;;;;;;0.40;0.40;;;;;;;22.74;47.38;100517.19;5115795;28;20044;-62
2023/10/02 10:33:40;;;;;;;0.50;0.50;;;;;;;22.58;47.50;100507.31;5113308;28;20046;-62
2023/10/02 10:36:41;;;;;;;1.10;0.80;;;;;;;22.44;47.99;100509.56;5116232;28;20405;-64
2023/10/02 10:39:33;;;;;;;0.88;0.75;;;;;;;22.42;48.32;100511.38;5109528;28;20104;-64
2023/10/02 10:42:03;;;;;;;0.82;0.82;;;;;;;22.48;48.00;100503.34;5115521;28;20074;-64
2023/10/02 10:44:34;;;;;;;1.50;1.00;;;;;;;22.63;47.75;100500.22;5114734;28;20048;-63
2023/10/02 10:47:06;;;;;;;0.95;0.88;;;;;;;22.92;47.82;100495.66;5115754;28;20048;-65
2023/10/02 10:52:35;;;;;;;0.60;0.60;;;;;;;23.10;45.40;100490.63;5115443;28;20513;-64
2023/10/02 10:55:32;;;;;;;1.05;0.70;;;;;;;23.17;45.66;100491.22;5115157;28;20087;-64
2023/10/02 10:58:01;;;;;;;0.95;0.80;;;;;;;23.23;45.72;100485.75;5114142;28;20035;-66
2023/10/02 11:00:41;;;;;;;0.53;0.53;;;;;;;23.33;45.03;100487.09;5115473;28;20498;-67
2023/10/02 11:03:14;;;;;;;0.70;0.70;;;;;;;23.41;45.30;100485.06;5115304;28;20059;-66
2023/10/02 11:05:44;;;;;;;1.60;0.52;;;;;;;23.47;45.94;100490.03;5114628;28;20044;-65
2023/10/02 11:11:04;;;;;;;9.00;5.95;;;;;;;23.55;45.80;100477.53;5114856;28;20044;-66
2023/10/02 11:16:31;;;;;;;0.70;0.70;;;;;;;23.70;44.59;100466.47;5112537;28;20040;-64
2023/10/02 11:19:21;;;;;;;0.57;0.57;;;;;;;23.88;45.14;100470.91;5115176;28;20042;-64
2023/10/02 11:25:18;;;;;;;0.88;0.85;;;;;;;23.90;45.26;100458.66;5113424;28;20436;-66
2023/10/02 11:27:57;;;;;;;21.80;1.58;;;;;;;23.98;45.17;100456.56;5115058;28;20406;-65
2023/10/02 11:30:32;;;;;;;0.60;0.60;;;;;;;23.87;44.44;100450.94;5114807;28;20043;-66
2023/10/02 11:33:04;;;;;;;0.32;0.32;;;;;;;23.81;44.15;100459.03;5113586;28;20138;-65
2023/10/02 11:35:39;;;;;;;0.85;0.63;;;;;;;23.88;44.27;100454.41;5115015;28;20398;-65
2023/10/02 11:38:09;;;;;;;0.60;0.60;;;;;;;23.84;43.99;100455.47;5114056;28;20052;-64
2023/10/02 11:40:43;;;;;;;0.57;0.57;;;;;;;23.94;43.63;100447.19;5114495;28;20035;-66
2023/10/02 11:43:15;;;;;;;1.08;1.02;;;;;;;23.98;43.73;100445.28;5113351;28;20047;-64
2023/10/02 11:45:47;;;;;;;0.55;0.55;;;;;;;23.91;43.03;100439.47;5114389;28;20075;-66
2023/10/02 11:48:18;;;;;;;0.60;0.60;;;;;;;23.99;43.22;100437.38;5114276;28;20054;-65
2023/10/02 11:50:50;;;;;;;0.60;0.60;;;;;;;23.94;43.20;100438.50;5114403;28;20054;-65
2023/10/02 11:53:21;;;;;;;0.50;0.50;;;;;;;24.00;43.62;100428.66;5112467;28;20043;-64
2023/10/02 11:55:51;;;;;;;2.78;1.90;;;;;;;24.22;43.68;100422.50;5113168;28;20039;-63
2023/10/02 11:58:19;;;;;;;;;;;;;;;24.29;43.83;100421.31;5114702;28;20047;-64
2023/10/02 12:00:48;;;;;;;1.17;1.08;;;;;;;24.24;43.17;100415.44;5114396;28;19927;-64
2023/10/02 12:03:18;;;;;;;0.75;0.75;;;;;;;24.27;42.76;100417.94;5114200;28;20047;-64
2023/10/02 12:05:50;;;;;;;0.50;0.50;;;;;;;24.26;42.70;100416.25;5112039;28;20051;-65
2023/10/02 12:08:21;;;;;;;0.65;0.65;;;;;;;24.32;42.57;100418.56;5114521;28;20047;-65
2023/10/02 12:10:55;;;;;;;1.42;1.10;;;;;;;24.31;42.42;100411.66;5114128;28;20070;-64
2023/10/02 12:13:24;;;;;;;0.60;0.60;;;;;;;24.35;42.20;100408.00;5113992;28;20044;-65
2023/10/02 12:15:54;;;;;;;4.18;1.25;;;;;;;24.47;42.38;100410.06;5112759;28;20143;-65
2023/10/02 12:18:26;;;;;;;0.88;0.88;;;;;;;24.45;42.60;100404.06;5114208;28;20401;-65
2023/10/02 12:20:56;;;;;;;0.47;0.47;;;;;;;24.52;42.40;100400.25;5114075;28;20082;-66
2023/10/02 12:23:26;;;;;;;0.70;0.70;;;;;;;24.78;41.79;100394.69;5114151;28;20039;-65
2023/10/02 12:25:56;;;;;;;0.50;0.50;;;;;;;24.91;42.30;100392.31;5112829;28;20113;-65
2023/10/02 12:28:26;;;;;;;0.80;0.80;;;;;;;24.89;42.41;100395.00;5113976;28;20070;-65
2023/10/02 12:30:54;;;;;;;0.60;0.60;;;;;;;24.85;42.83;100388.25;5114183;28;20055;-64
2023/10/02 12:33:25;;;;;;;3.92;1.05;;;;;;;24.77;42.87;100385.13;5112771;28;20036;-64
2023/10/02 12:35:54;;;;;;;0.82;0.75;;;;;;;24.79;43.16;100383.31;5112840;28;20044;-66
2023/10/02 12:38:24;;;;;;;0.60;0.60;;;;;;;24.86;43.04;100384.69;5113544;28;20048;-66
2023/10/02 12:40:53;;;;;;;0.70;0.70;;;;;;;24.86;43.03;100378.66;5112455;28;20086;-65
2023/10/02 12:43:21;;;;;;;0.50;0.50;;;;;;;24.87;42.89;100381.19;5107944;28;20139;-65
2023/10/02 12:45:50;;;;;;;;;;;;;;;25.05;42.73;100385.50;5113197;28;20074;-65
2023/10/02 12:48:19;;;;;;;0.50;0.50;;;;;;;25.04;42.10;100370.75;5112158;28;20404;-67
2023/10/02 12:50:49;;;;;;;1.50;0.90;;;;;;;25.12;42.83;100381.66;5115311;28;20032;-66
2023/10/02 12:53:18;;;;;;;0.55;0.55;;;;;;;25.20;43.10;100373.44;5117895;28;20054;-67
2023/10/02 12:55:47;;;;;;;0.82;0.82;;;;;;;25.30;42.91;100369.47;5117760;28;20099;-66
2023/10/02 12:58:16;;;;;;;1.13;0.75;;;;;;;25.34;42.20;100364.94;5117348;28;20044;-67
2023/10/02 13:00:48;;;;;;;0.70;0.70;;;;;;;25.41;42.55;100366.31;5117653;28;20059;-67
2023/10/02 13:03:17;;;;;;;3.05;2.35;;;;;;;25.19;42.36;100372.59;5114674;28;20101;-65
2023/10/02 13:05:46;;;;;;;1.17;1.05;;;;;;;25.03;42.37;100369.06;5111523;28;20039;-66
2023/10/02 13:08:17;;;;;;;0.40;0.40;;;;;;;25.04;42.04;100357.69;5116828;28;20035;-66
2023/10/02 13:10:46;;;;;;;0.93;0.70;;;;;;;25.20;42.41;100356.00;5117012;28;20115;-66
2023/10/02 13:13:14;;;;;;;1.67;1.25;;;;;;;25.05;42.78;100353.31;5113672;28;20066;-66
2023/10/02 13:15:43;;;;;;;0.68;0.68;;;;;;;24.95;42.72;100352.94;5105010;28;20080;-64
2023/10/02 13:18:13;;;;;;;0.57;0.57;;;;;;;25.05;42.80;100348.09;5096668;28;20044;-67
2023/10/02 13:20:43;;;;;;;0.85;0.85;;;;;;;25.09;43.20;100345.25;5096949;28;20054;-65
2023/10/02 13:23:13;;;;;;;0.95;0.60;;;;;;;25.07;43.64;100343.63;5097136;28;20048;-65
2023/10/02 13:25:43;;;;;;;0.82;0.75;;;;;;;25.02;43.42;100341.25;5096836;28;20047;-66
2023/10/02 13:28:14;;;;;;;4.03;1.60;;;;;;;25.00;42.91;100335.22;5095687;28;20055;-66
2023/10/02 13:30:43;;;;;;;0.75;0.75;;;;;;;25.08;42.86;100343.56;5096964;28;20078;-65
2023/10/02 13:33:12;;;;;;;1.73;1.35;;;;;;;25.16;42.36;100330.97;5096582;28;20502;-65